sensor_id;sensor_type;location;lat;lon;timestamp;temperature;humidity
40816;DHT22;26535;48.788;9.214;2023-03-23T00:02:28;14.40;79.40
40816;DHT22;26535;48.788;9.214;2023-03-23T00:04:54;14.50;77.70
40816;DHT22;26535;48.788;9.214;2023-03-23T00:07:22;14.50;77.20
40816;DHT22;26535;48.788;9.214;2023-03-23T00:09:51;14.60;77.20
40816;DHT22;26535;48.788;9.214;2023-03-23T00:12:25;14.60;76.80
40816;DHT22;26535;48.788;9.214;2023-03-23T00:14:57;14.70;76.50
40816;DHT22;26535;48.788;9.214;2023-03-23T00:17:24;14.70;76.50
40816;DHT22;26535;48.788;9.214;2023-03-23T00:19:50;14.70;77.20
40816;DHT22;26535;48.788;9.214;2023-03-23T00:22:16;14.70;76.70
40816;DHT22;26535;48.788;9.214;2023-03-23T00:24:44;14.70;76.70
40816;DHT22;26535;48.788;9.214;2023-03-23T00:27:10;14.70;76.90
40816;DHT22;26535;48.788;9.214;2023-03-23T00:29:38;14.70;77.10
40816;DHT22;26535;48.788;9.214;2023-03-23T00:32:04;14.70;77.20
40816;DHT22;26535;48.788;9.214;2023-03-23T00:34:31;14.60;77.50
40816;DHT22;26535;48.788;9.214;2023-03-23T00:36:58;14.60;77.80
40816;DHT22;26535;48.788;9.214;2023-03-23T00:39:28;14.60;77.70
40816;DHT22;26535;48.788;9.214;2023-03-23T00:41:55;14.60;77.50
40816;DHT22;26535;48.788;9.214;2023-03-23T00:44:27;14.50;77.70
40816;DHT22;26535;48.788;9.214;2023-03-23T00:46:54;14.50;78.00
40816;DHT22;26535;48.788;9.214;2023-03-23T00:49:22;14.40;78.30
40816;DHT22;26535;48.788;9.214;2023-03-23T00:51:56;14.30;79.40
40816;DHT22;26535;48.788;9.214;2023-03-23T00:54:23;14.20;79.20
40816;DHT22;26535;48.788;9.214;2023-03-23T00:56:49;14.10;79.50
40816;DHT22;26535;48.788;9.214;2023-03-23T00:59:16;14.00;79.50
40816;DHT22;26535;48.788;9.214;2023-03-23T06:03:40;15.10;78.60
40816;DHT22;26535;48.788;9.214;2023-03-23T06:06:28;15.20;78.40
40816;DHT22;26535;48.788;9.214;2023-03-23T06:09:05;15.20;78.10
40816;DHT22;26535;48.788;9.214;2023-03-23T06:12:00;15.30;78.10
40816;DHT22;26535;48.788;9.214;2023-03-23T06:14:36;15.30;78.30
40816;DHT22;26535;48.788;9.214;2023-03-23T06:17:03;15.30;78.60
40816;DHT22;26535;48.788;9.214;2023-03-23T06:19:29;15.40;77.80
40816;DHT22;26535;48.788;9.214;2023-03-23T06:22:02;15.40;78.00
40816;DHT22;26535;48.788;9.214;2023-03-23T06:24:49;15.40;78.00
40816;DHT22;26535;48.788;9.214;2023-03-23T06:27:19;15.30;78.00
40816;DHT22;26535;48.788;9.214;2023-03-23T06:29:45;15.30;78.00
40816;DHT22;26535;48.788;9.214;2023-03-23T06:32:13;15.30;78.10
40816;DHT22;26535;48.788;9.214;2023-03-23T06:34:41;15.30;78.10
40816;DHT22;26535;48.788;9.214;2023-03-23T06:37:29;15.30;78.30
40816;DHT22;26535;48.788;9.214;2023-03-23T06:40:05;15.30;78.30
40816;DHT22;26535;48.788;9.214;2023-03-23T06:42:38;15.30;78.50
40816;DHT22;26535;48.788;9.214;2023-03-23T06:45:22;15.20;78.50
40816;DHT22;26535;48.788;9.214;2023-03-23T06:47:53;15.20;78.70
40816;DHT22;26535;48.788;9.214;2023-03-23T06:50:20;15.30;78.60
40816;DHT22;26535;48.788;9.214;2023-03-23T06:52:47;15.30;78.70
40816;DHT22;26535;48.788;9.214;2023-03-23T06:55:14;15.40;78.60
40816;DHT22;26535;48.788;9.214;2023-03-23T06:57:40;15.50;78.30
40816;DHT22;26535;48.788;9.214;2023-03-23T07:00:07;15.70;78.20
40816;DHT22;26535;48.788;9.214;2023-03-23T07:02:41;15.90;77.50
40816;DHT22;26535;48.788;9.214;2023-03-23T07:05:08;16.00;77.30
40816;DHT22;26535;48.788;9.214;2023-03-23T07:07:38;16.10;76.80
40816;DHT22;26535;48.788;9.214;2023-03-23T07:10:27;16.10;77.00
40816;DHT22;26535;48.788;9.214;2023-03-23T07:12:54;16.10;77.00
40816;DHT22;26535;48.788;9.214;2023-03-23T07:15:20;16.10;77.10
40816;DHT22;26535;48.788;9.214;2023-03-23T07:17:49;16.10;77.00
40816;DHT22;26535;48.788;9.214;2023-03-23T07:20:29;16.10;77.20
40816;DHT22;26535;48.788;9.214;2023-03-23T07:22:54;16.00;77.40
40816;DHT22;26535;48.788;9.214;2023-03-23T07:25:37;16.00;77.50
40816;DHT22;26535;48.788;9.214;2023-03-23T07:28:03;15.90;77.70
40816;DHT22;26535;48.788;9.214;2023-03-23T07:30:30;15.90;77.70
40816;DHT22;26535;48.788;9.214;2023-03-23T07:32:56;15.90;77.80
40816;DHT22;26535;48.788;9.214;2023-03-23T07:35:24;15.90;77.90
40816;DHT22;26535;48.788;9.214;2023-03-23T07:37:56;15.90;78.00
40816;DHT22;26535;48.788;9.214;2023-03-23T07:40:22;15.90;77.90
40816;DHT22;26535;48.788;9.214;2023-03-23T07:42:56;16.00;77.90
40816;DHT22;26535;48.788;9.214;2023-03-23T07:45:45;16.00;77.70
40816;DHT22;26535;48.788;9.214;2023-03-23T07:48:13;16.20;77.60
40816;DHT22;26535;48.788;9.214;2023-03-23T07:50:39;16.30;77.20
40816;DHT22;26535;48.788;9.214;2023-03-23T07:53:08;16.40;77.00
40816;DHT22;26535;48.788;9.214;2023-03-23T07:55:35;16.60;76.40
40816;DHT22;26535;48.788;9.214;2023-03-23T07:58:21;16.80;76.30
40816;DHT22;26535;48.788;9.214;2023-03-23T08:00:52;17.10;75.70
40816;DHT22;26535;48.788;9.214;2023-03-23T08:03:20;17.20;75.50
40816;DHT22;26535;48.788;9.214;2023-03-23T08:06:06;17.30;75.20
40816;DHT22;26535;48.788;9.214;2023-03-23T08:08:58;17.40;75.30
40816;DHT22;26535;48.788;9.214;2023-03-23T08:11:43;17.20;76.00
40816;DHT22;26535;48.788;9.214;2023-03-23T08:14:35;17.20;76.50
40816;DHT22;26535;48.788;9.214;2023-03-23T08:17:17;17.10;76.90
40816;DHT22;26535;48.788;9.214;2023-03-23T08:19:55;17.20;77.00
40816;DHT22;26535;48.788;9.214;2023-03-23T08:22:56;17.10;77.20
40816;DHT22;26535;48.788;9.214;2023-03-23T08:25:35;17.10;77.50
40816;DHT22;26535;48.788;9.214;2023-03-23T08:28:11;17.20;77.60
40816;DHT22;26535;48.788;9.214;2023-03-23T08:30:59;17.30;77.90
40816;DHT22;26535;48.788;9.214;2023-03-23T08:33:34;17.30;78.30
40816;DHT22;26535;48.788;9.214;2023-03-23T08:36:15;17.30;78.70
40816;DHT22;26535;48.788;9.214;2023-03-23T08:39:13;17.40;78.60
40816;DHT22;26535;48.788;9.214;2023-03-23T08:42:01;17.30;79.00
40816;DHT22;26535;48.788;9.214;2023-03-23T08:44:46;17.20;79.70
40816;DHT22;26535;48.788;9.214;2023-03-23T08:47:37;17.10;79.80
40816;DHT22;26535;48.788;9.214;2023-03-23T08:50:25;16.90;80.20
40816;DHT22;26535;48.788;9.214;2023-03-23T08:53:02;16.90;80.80
40816;DHT22;26535;48.788;9.214;2023-03-23T08:55:47;16.90;80.80
40816;DHT22;26535;48.788;9.214;2023-03-23T08:58:13;16.90;81.30
40816;DHT22;26535;48.788;9.214;2023-03-23T09:01:03;16.90;81.50
40816;DHT22;26535;48.788;9.214;2023-03-23T09:03:42;16.80;81.90
40816;DHT22;26535;48.788;9.214;2023-03-23T09:06:27;16.80;81.80
40816;DHT22;26535;48.788;9.214;2023-03-23T09:08:53;16.90;82.10
40816;DHT22;26535;48.788;9.214;2023-03-23T09:11:22;17.00;81.80
40816;DHT22;26535;48.788;9.214;2023-03-23T09:13:48;17.10;81.50
40816;DHT22;26535;48.788;9.214;2023-03-23T09:16:13;17.20;80.90
40816;DHT22;26535;48.788;9.214;2023-03-23T09:18:39;17.30;81.00
40816;DHT22;26535;48.788;9.214;2023-03-23T09:21:05;17.40;80.80
40816;DHT22;26535;48.788;9.214;2023-03-23T09:23:32;17.50;80.30
40816;DHT22;26535;48.788;9.214;2023-03-23T09:25:59;17.50;80.30
40816;DHT22;26535;48.788;9.214;2023-03-23T09:28:26;17.50;80.00
40816;DHT22;26535;48.788;9.214;2023-03-23T09:30:54;17.60;80.00
40816;DHT22;26535;48.788;9.214;2023-03-23T09:33:23;17.60;79.70
40816;DHT22;26535;48.788;9.214;2023-03-23T09:35:49;17.80;79.70
40816;DHT22;26535;48.788;9.214;2023-03-23T09:38:15;17.80;79.70
40816;DHT22;26535;48.788;9.214;2023-03-23T09:40:49;17.80;79.40
40816;DHT22;26535;48.788;9.214;2023-03-23T09:43:40;17.70;79.00
40816;DHT22;26535;48.788;9.214;2023-03-23T09:46:30;17.60;79.20
40816;DHT22;26535;48.788;9.214;2023-03-23T09:49:03;17.50;79.40
40816;DHT22;26535;48.788;9.214;2023-03-23T09:51:40;17.40;80.00
40816;DHT22;26535;48.788;9.214;2023-03-23T09:56:36;17.30;80.30
40816;DHT22;26535;48.788;9.214;2023-03-23T09:59:17;17.20;80.50
40816;DHT22;26535;48.788;9.214;2023-03-23T10:01:50;17.50;80.20
40816;DHT22;26535;48.788;9.214;2023-03-23T10:04:21;17.70;79.60
40816;DHT22;26535;48.788;9.214;2023-03-23T10:06:49;17.80;79.30
40816;DHT22;26535;48.788;9.214;2023-03-23T10:09:17;18.00;78.70
40816;DHT22;26535;48.788;9.214;2023-03-23T10:11:56;18.00;78.90
40816;DHT22;26535;48.788;9.214;2023-03-23T10:14:46;17.90;79.00
40816;DHT22;26535;48.788;9.214;2023-03-23T10:17:30;17.80;79.90
40816;DHT22;26535;48.788;9.214;2023-03-23T10:25:37;18.10;79.00
40816;DHT22;26535;48.788;9.214;2023-03-23T10:28:13;17.90;79.20
40816;DHT22;26535;48.788;9.214;2023-03-23T10:30:59;17.70;79.70
40816;DHT22;26535;48.788;9.214;2023-03-23T10:33:41;17.80;79.80
40816;DHT22;26535;48.788;9.214;2023-03-23T10:38:39;18.00;79.50
40816;DHT22;26535;48.788;9.214;2023-03-23T10:41:17;18.10;79.50
40816;DHT22;26535;48.788;9.214;2023-03-23T10:43:44;18.30;79.70
40816;DHT22;26535;48.788;9.214;2023-03-23T10:48:58;18.30;79.10
40816;DHT22;26535;48.788;9.214;2023-03-23T10:51:36;18.20;79.40
40816;DHT22;26535;48.788;9.214;2023-03-23T10:54:04;18.00;80.10
40816;DHT22;26535;48.788;9.214;2023-03-23T10:56:41;18.00;80.00
40816;DHT22;26535;48.788;9.214;2023-03-23T10:59:29;18.10;80.10
40816;DHT22;26535;48.788;9.214;2023-03-23T11:02:00;18.30;79.30
40816;DHT22;26535;48.788;9.214;2023-03-23T11:04:28;18.40;79.10
40816;DHT22;26535;48.788;9.214;2023-03-23T11:06:59;18.60;79.00
40816;DHT22;26535;48.788;9.214;2023-03-23T11:09:38;18.60;78.80
40816;DHT22;26535;48.788;9.214;2023-03-23T11:12:15;18.50;79.10
40816;DHT22;26535;48.788;9.214;2023-03-23T11:14:41;18.60;79.20
40816;DHT22;26535;48.788;9.214;2023-03-23T11:17:21;18.70;78.80
40816;DHT22;26535;48.788;9.214;2023-03-23T11:19:48;18.70;78.60
40816;DHT22;26535;48.788;9.214;2023-03-23T11:22:29;18.50;78.60
40816;DHT22;26535;48.788;9.214;2023-03-23T11:25:00;18.30;79.30
40816;DHT22;26535;48.788;9.214;2023-03-23T11:27:28;18.10;79.80
40816;DHT22;26535;48.788;9.214;2023-03-23T11:30:01;18.00;80.90
40816;DHT22;26535;48.788;9.214;2023-03-23T11:32:33;17.90;80.60
40816;DHT22;26535;48.788;9.214;2023-03-23T11:35:00;18.00;80.80
40816;DHT22;26535;48.788;9.214;2023-03-23T11:37:34;18.10;80.70
40816;DHT22;26535;48.788;9.214;2023-03-23T11:50:32;18.80;79.00
40816;DHT22;26535;48.788;9.214;2023-03-23T11:53:00;18.90;78.50
40816;DHT22;26535;48.788;9.214;2023-03-23T11:58:15;18.90;78.40
40816;DHT22;26535;48.788;9.214;2023-03-23T12:06:38;19.30;77.00
40816;DHT22;26535;48.788;9.214;2023-03-23T12:09:34;19.50;76.80
40816;DHT22;26535;48.788;9.214;2023-03-23T12:12:16;19.50;76.50
40816;DHT22;26535;48.788;9.214;2023-03-23T12:23:46;19.20;74.70
40816;DHT22;26535;48.788;9.214;2023-03-23T12:26:34;19.20;74.60
40816;DHT22;26535;48.788;9.214;2023-03-23T12:29:16;19.20;74.70
40816;DHT22;26535;48.788;9.214;2023-03-23T12:34:41;19.30;73.60
40816;DHT22;26535;48.788;9.214;2023-03-23T12:37:24;19.30;74.00
40816;DHT22;26535;48.788;9.214;2023-03-23T12:40:25;19.40;74.20
40816;DHT22;26535;48.788;9.214;2023-03-23T12:48:53;19.90;72.80
40816;DHT22;26535;48.788;9.214;2023-03-23T12:51:36;20.00;73.00
40816;DHT22;26535;48.788;9.214;2023-03-23T12:57:17;20.80;71.20
40816;DHT22;26535;48.788;9.214;2023-03-23T13:00:12;20.40;71.90
40816;DHT22;26535;48.788;9.214;2023-03-23T13:02:53;20.10;72.50
40816;DHT22;26535;48.788;9.214;2023-03-23T13:08:00;19.60;74.00
40816;DHT22;26535;48.788;9.214;2023-03-23T13:10:41;19.50;74.30
40816;DHT22;26535;48.788;9.214;2023-03-23T13:13:14;19.30;74.80
40816;DHT22;26535;48.788;9.214;2023-03-23T13:16:03;19.40;75.30
40816;DHT22;26535;48.788;9.214;2023-03-23T13:18:48;19.60;75.00
40816;DHT22;26535;48.788;9.214;2023-03-23T13:21:26;19.60;74.80
40816;DHT22;26535;48.788;9.214;2023-03-23T13:23:59;19.70;74.40
40816;DHT22;26535;48.788;9.214;2023-03-23T13:26:40;19.70;74.40
40816;DHT22;26535;48.788;9.214;2023-03-23T13:29:12;19.80;74.40
40816;DHT22;26535;48.788;9.214;2023-03-23T13:31:40;19.90;74.50
40816;DHT22;26535;48.788;9.214;2023-03-23T13:36:40;20.00;73.80
40816;DHT22;26535;48.788;9.214;2023-03-23T13:39:17;20.20;73.70
40816;DHT22;26535;48.788;9.214;2023-03-23T13:41:49;20.10;73.80
40816;DHT22;26535;48.788;9.214;2023-03-23T13:44:25;20.10;73.70
40816;DHT22;26535;48.788;9.214;2023-03-23T13:46:56;20.00;73.90
40816;DHT22;26535;48.788;9.214;2023-03-23T13:49:22;20.00;74.00
40816;DHT22;26535;48.788;9.214;2023-03-23T13:51:59;20.10;74.30
40816;DHT22;26535;48.788;9.214;2023-03-23T13:54:31;20.10;73.10
40816;DHT22;26535;48.788;9.214;2023-03-23T13:57:19;19.90;73.00
40816;DHT22;26535;48.788;9.214;2023-03-23T13:59:54;19.60;73.70
40816;DHT22;26535;48.788;9.214;2023-03-23T14:02:40;19.60;73.40
40816;DHT22;26535;48.788;9.214;2023-03-23T14:10:19;19.10;74.30
40816;DHT22;26535;48.788;9.214;2023-03-23T14:12:45;19.10;74.90
40816;DHT22;26535;48.788;9.214;2023-03-23T14:15:13;19.10;75.00
40816;DHT22;26535;48.788;9.214;2023-03-23T14:17:44;19.10;75.50
40816;DHT22;26535;48.788;9.214;2023-03-23T14:20:26;19.20;74.80
40816;DHT22;26535;48.788;9.214;2023-03-23T14:22:55;19.20;74.70
40816;DHT22;26535;48.788;9.214;2023-03-23T14:25:22;19.30;74.30
40816;DHT22;26535;48.788;9.214;2023-03-23T14:27:51;19.30;74.20
40816;DHT22;26535;48.788;9.214;2023-03-23T14:30:20;19.30;74.00
40816;DHT22;26535;48.788;9.214;2023-03-23T14:32:46;19.30;73.00
40816;DHT22;26535;48.788;9.214;2023-03-23T14:35:29;19.30;73.20
40816;DHT22;26535;48.788;9.214;2023-03-23T14:37:55;19.30;72.90
40816;DHT22;26535;48.788;9.214;2023-03-23T14:40:22;19.30;73.10
40816;DHT22;26535;48.788;9.214;2023-03-23T14:42:50;19.30;73.00
40816;DHT22;26535;48.788;9.214;2023-03-23T14:45:19;19.30;73.00
40816;DHT22;26535;48.788;9.214;2023-03-23T14:47:53;19.30;73.40
40816;DHT22;26535;48.788;9.214;2023-03-23T14:50:29;19.40;72.30
40816;DHT22;26535;48.788;9.214;2023-03-23T14:53:21;19.30;72.60
40816;DHT22;26535;48.788;9.214;2023-03-23T14:55:48;19.40;72.60
40816;DHT22;26535;48.788;9.214;2023-03-23T14:58:20;19.30;72.40
40816;DHT22;26535;48.788;9.214;2023-03-23T15:01:09;19.30;72.20
40816;DHT22;26535;48.788;9.214;2023-03-23T15:03:43;19.20;72.50
40816;DHT22;26535;48.788;9.214;2023-03-23T15:06:16;19.10;72.80
40816;DHT22;26535;48.788;9.214;2023-03-23T15:08:43;19.00;72.70
40816;DHT22;26535;48.788;9.214;2023-03-23T15:13:49;19.10;72.90
40816;DHT22;26535;48.788;9.214;2023-03-23T15:16:19;19.20;72.20
40816;DHT22;26535;48.788;9.214;2023-03-23T15:19:12;19.20;72.00
40816;DHT22;26535;48.788;9.214;2023-03-23T15:26:45;19.20;71.40
40816;DHT22;26535;48.788;9.214;2023-03-23T15:29:21;19.10;71.10
40816;DHT22;26535;48.788;9.214;2023-03-23T15:31:58;19.00;71.10
40816;DHT22;26535;48.788;9.214;2023-03-23T15:34:36;18.90;71.40
40816;DHT22;26535;48.788;9.214;2023-03-23T15:37:13;18.80;71.50
40816;DHT22;26535;48.788;9.214;2023-03-23T15:39:44;18.80;71.60
40816;DHT22;26535;48.788;9.214;2023-03-23T15:42:31;18.70;71.60
40816;DHT22;26535;48.788;9.214;2023-03-23T15:50:16;18.60;71.90
40816;DHT22;26535;48.788;9.214;2023-03-23T15:52:42;18.50;72.30
40816;DHT22;26535;48.788;9.214;2023-03-23T15:55:35;18.50;72.20
40816;DHT22;26535;48.788;9.214;2023-03-23T15:58:08;18.40;72.30
40816;DHT22;26535;48.788;9.214;2023-03-23T16:00:35;18.40;72.70
40816;DHT22;26535;48.788;9.214;2023-03-23T16:03:04;18.40;73.10
40816;DHT22;26535;48.788;9.214;2023-03-23T16:05:31;18.40;73.00
40816;DHT22;26535;48.788;9.214;2023-03-23T16:07:58;18.30;73.20
40816;DHT22;26535;48.788;9.214;2023-03-23T16:10:25;18.30;73.30
40816;DHT22;26535;48.788;9.214;2023-03-23T16:12:51;18.20;73.20
40816;DHT22;26535;48.788;9.214;2023-03-23T16:15:18;18.20;73.40
40816;DHT22;26535;48.788;9.214;2023-03-23T16:17:44;18.20;73.50
40816;DHT22;26535;48.788;9.214;2023-03-23T16:20:19;18.10;73.70
40816;DHT22;26535;48.788;9.214;2023-03-23T16:22:45;18.00;73.60
40816;DHT22;26535;48.788;9.214;2023-03-23T16:25:12;18.00;73.90
40816;DHT22;26535;48.788;9.214;2023-03-23T16:27:39;17.90;74.10
40816;DHT22;26535;48.788;9.214;2023-03-23T16:32:41;17.80;74.30
40816;DHT22;26535;48.788;9.214;2023-03-23T16:35:10;17.80;74.50
40816;DHT22;26535;48.788;9.214;2023-03-23T16:37:35;17.70;74.50
40816;DHT22;26535;48.788;9.214;2023-03-23T16:40:02;17.70;74.70
40816;DHT22;26535;48.788;9.214;2023-03-23T16:42:28;17.60;75.20
40816;DHT22;26535;48.788;9.214;2023-03-23T16:44:53;17.60;75.10
40816;DHT22;26535;48.788;9.214;2023-03-23T16:47:20;17.60;75.20
40816;DHT22;26535;48.788;9.214;2023-03-23T16:49:51;17.60;75.20
40816;DHT22;26535;48.788;9.214;2023-03-23T16:52:17;17.50;75.20
40816;DHT22;26535;48.788;9.214;2023-03-23T16:54:43;17.50;75.70
40816;DHT22;26535;48.788;9.214;2023-03-23T16:57:09;17.40;76.30
40816;DHT22;26535;48.788;9.214;2023-03-23T16:59:35;17.40;76.30
40816;DHT22;26535;48.788;9.214;2023-03-23T17:02:01;17.40;76.60
40816;DHT22;26535;48.788;9.214;2023-03-23T17:04:32;17.30;76.60
40816;DHT22;26535;48.788;9.214;2023-03-23T17:06:58;17.30;76.60
40816;DHT22;26535;48.788;9.214;2023-03-23T17:09:25;17.30;76.80
40816;DHT22;26535;48.788;9.214;2023-03-23T17:11:52;17.20;76.80
40816;DHT22;26535;48.788;9.214;2023-03-23T17:14:18;17.30;76.90
40816;DHT22;26535;48.788;9.214;2023-03-23T17:16:44;17.20;77.10
40816;DHT22;26535;48.788;9.214;2023-03-23T17:19:09;17.20;77.30
40816;DHT22;26535;48.788;9.214;2023-03-23T17:21:35;17.20;77.50
40816;DHT22;26535;48.788;9.214;2023-03-23T17:24:02;17.10;77.80
40816;DHT22;26535;48.788;9.214;2023-03-23T17:26:28;17.10;78.00
40816;DHT22;26535;48.788;9.214;2023-03-23T17:28:53;17.00;78.40
40816;DHT22;26535;48.788;9.214;2023-03-23T17:31:22;17.00;78.50
40816;DHT22;26535;48.788;9.214;2023-03-23T17:33:47;16.90;78.80
40816;DHT22;26535;48.788;9.214;2023-03-23T17:36:14;16.90;78.90
40816;DHT22;26535;48.788;9.214;2023-03-23T17:38:39;16.90;78.90
40816;DHT22;26535;48.788;9.214;2023-03-23T17:41:05;16.90;79.00
40816;DHT22;26535;48.788;9.214;2023-03-23T17:43:32;16.90;79.00
40816;DHT22;26535;48.788;9.214;2023-03-23T17:46:00;16.90;79.20
40816;DHT22;26535;48.788;9.214;2023-03-23T17:48:25;16.90;79.30
40816;DHT22;26535;48.788;9.214;2023-03-23T17:50:54;16.80;79.60
40816;DHT22;26535;48.788;9.214;2023-03-23T17:53:23;16.80;79.80
40816;DHT22;26535;48.788;9.214;2023-03-23T17:55:53;16.80;79.90
40816;DHT22;26535;48.788;9.214;2023-03-23T17:58:19;16.70;80.10
40816;DHT22;26535;48.788;9.214;2023-03-23T18:00:45;16.70;80.30
40816;DHT22;26535;48.788;9.214;2023-03-23T18:03:11;16.70;80.40
40816;DHT22;26535;48.788;9.214;2023-03-23T18:05:36;16.70;80.70
40816;DHT22;26535;48.788;9.214;2023-03-23T18:08:06;16.60;80.90
40816;DHT22;26535;48.788;9.214;2023-03-23T18:10:32;16.60;81.00
40816;DHT22;26535;48.788;9.214;2023-03-23T18:13:02;16.60;81.00
40816;DHT22;26535;48.788;9.214;2023-03-23T18:15:28;16.60;81.00
40816;DHT22;26535;48.788;9.214;2023-03-23T18:17:55;16.60;81.10
40816;DHT22;26535;48.788;9.214;2023-03-23T18:20:21;16.50;81.10
40816;DHT22;26535;48.788;9.214;2023-03-23T18:22:48;16.60;81.20
40816;DHT22;26535;48.788;9.214;2023-03-23T18:25:14;16.60;81.20
40816;DHT22;26535;48.788;9.214;2023-03-23T18:27:40;16.60;81.10
40816;DHT22;26535;48.788;9.214;2023-03-23T18:30:06;16.60;81.00
40816;DHT22;26535;48.788;9.214;2023-03-23T18:32:37;16.60;81.10
40816;DHT22;26535;48.788;9.214;2023-03-23T18:35:05;16.60;81.10
40816;DHT22;26535;48.788;9.214;2023-03-23T18:37:31;16.60;81.20
40816;DHT22;26535;48.788;9.214;2023-03-23T18:39:57;16.60;81.40
40816;DHT22;26535;48.788;9.214;2023-03-23T18:42:23;16.50;81.40
40816;DHT22;26535;48.788;9.214;2023-03-23T18:44:49;16.60;81.50
40816;DHT22;26535;48.788;9.214;2023-03-23T18:47:14;16.50;81.80
40816;DHT22;26535;48.788;9.214;2023-03-23T18:49:41;16.50;81.90
40816;DHT22;26535;48.788;9.214;2023-03-23T18:52:06;16.50;82.10
40816;DHT22;26535;48.788;9.214;2023-03-23T18:54:32;16.50;82.20
40816;DHT22;26535;48.788;9.214;2023-03-23T18:57:00;16.40;82.30
40816;DHT22;26535;48.788;9.214;2023-03-23T18:59:27;16.50;82.40
40816;DHT22;26535;48.788;9.214;2023-03-23T19:01:56;16.40;82.40
40816;DHT22;26535;48.788;9.214;2023-03-23T19:04:22;16.40;82.60
40816;DHT22;26535;48.788;9.214;2023-03-23T19:06:49;16.40;82.70
40816;DHT22;26535;48.788;9.214;2023-03-23T19:09:15;16.30;82.70
40816;DHT22;26535;48.788;9.214;2023-03-23T19:11:43;16.40;82.80
40816;DHT22;26535;48.788;9.214;2023-03-23T19:14:09;16.40;82.50
40816;DHT22;26535;48.788;9.214;2023-03-23T19:16:35;16.40;82.70
40816;DHT22;26535;48.788;9.214;2023-03-23T19:19:02;16.40;82.70
40816;DHT22;26535;48.788;9.214;2023-03-23T19:21:28;16.40;82.60
40816;DHT22;26535;48.788;9.214;2023-03-23T19:23:55;16.40;82.70
40816;DHT22;26535;48.788;9.214;2023-03-23T19:26:24;16.40;82.60
40816;DHT22;26535;48.788;9.214;2023-03-23T19:28:51;16.40;82.70
40816;DHT22;26535;48.788;9.214;2023-03-23T19:31:17;16.30;82.70
40816;DHT22;26535;48.788;9.214;2023-03-23T19:33:45;16.40;82.50
40816;DHT22;26535;48.788;9.214;2023-03-23T19:36:11;16.50;82.20
40816;DHT22;26535;48.788;9.214;2023-03-23T19:38:37;16.50;82.20
40816;DHT22;26535;48.788;9.214;2023-03-23T19:41:03;16.50;82.10
40816;DHT22;26535;48.788;9.214;2023-03-23T19:43:29;16.50;82.10
40816;DHT22;26535;48.788;9.214;2023-03-23T19:45:55;16.40;82.40
40816;DHT22;26535;48.788;9.214;2023-03-23T19:48:21;16.40;82.40
40816;DHT22;26535;48.788;9.214;2023-03-23T19:50:49;16.30;82.60
40816;DHT22;26535;48.788;9.214;2023-03-23T19:53:17;16.30;82.80
40816;DHT22;26535;48.788;9.214;2023-03-23T19:55:43;16.20;82.90
40816;DHT22;26535;48.788;9.214;2023-03-23T19:58:09;16.20;82.90
40816;DHT22;26535;48.788;9.214;2023-03-23T20:00:35;16.20;83.10
40816;DHT22;26535;48.788;9.214;2023-03-23T20:03:01;16.20;83.40
40816;DHT22;26535;48.788;9.214;2023-03-23T20:05:27;16.10;83.60
40816;DHT22;26535;48.788;9.214;2023-03-23T20:07:53;16.00;83.60
40816;DHT22;26535;48.788;9.214;2023-03-23T20:10:20;16.00;83.60
40816;DHT22;26535;48.788;9.214;2023-03-23T20:12:45;16.10;83.30
40816;DHT22;26535;48.788;9.214;2023-03-23T20:15:11;16.10;83.20
40816;DHT22;26535;48.788;9.214;2023-03-23T20:17:37;16.10;83.00
40816;DHT22;26535;48.788;9.214;2023-03-23T20:20:04;16.10;83.00
40816;DHT22;26535;48.788;9.214;2023-03-23T20:22:33;16.10;83.20
40816;DHT22;26535;48.788;9.214;2023-03-23T20:24:59;16.00;83.50
40816;DHT22;26535;48.788;9.214;2023-03-23T20:27:25;16.00;83.80
40816;DHT22;26535;48.788;9.214;2023-03-23T20:29:53;15.90;83.70
40816;DHT22;26535;48.788;9.214;2023-03-23T20:32:18;15.80;83.90
40816;DHT22;26535;48.788;9.214;2023-03-23T20:34:44;15.80;84.00
40816;DHT22;26535;48.788;9.214;2023-03-23T20:37:14;15.80;84.30
40816;DHT22;26535;48.788;9.214;2023-03-23T20:39:42;15.80;84.40
40816;DHT22;26535;48.788;9.214;2023-03-23T20:42:10;15.80;84.50
40816;DHT22;26535;48.788;9.214;2023-03-23T20:44:37;15.70;84.70
40816;DHT22;26535;48.788;9.214;2023-03-23T20:47:06;15.70;85.00
40816;DHT22;26535;48.788;9.214;2023-03-23T20:49:33;15.60;85.10
40816;DHT22;26535;48.788;9.214;2023-03-23T20:52:02;15.60;85.30
40816;DHT22;26535;48.788;9.214;2023-03-23T20:54:29;15.60;85.40
40816;DHT22;26535;48.788;9.214;2023-03-23T20:56:55;15.60;85.40
40816;DHT22;26535;48.788;9.214;2023-03-23T20:59:23;15.50;85.30
40816;DHT22;26535;48.788;9.214;2023-03-23T21:01:50;15.50;85.70
40816;DHT22;26535;48.788;9.214;2023-03-23T21:04:19;15.50;85.80
40816;DHT22;26535;48.788;9.214;2023-03-23T21:06:46;15.50;85.90
40816;DHT22;26535;48.788;9.214;2023-03-23T21:09:14;15.40;85.90
40816;DHT22;26535;48.788;9.214;2023-03-23T21:11:40;15.40;86.10
40816;DHT22;26535;48.788;9.214;2023-03-23T21:14:07;15.30;86.30
40816;DHT22;26535;48.788;9.214;2023-03-23T21:16:32;15.30;86.40
40816;DHT22;26535;48.788;9.214;2023-03-23T21:18:59;15.30;86.40
40816;DHT22;26535;48.788;9.214;2023-03-23T21:21:25;15.30;86.50
40816;DHT22;26535;48.788;9.214;2023-03-23T21:23:52;15.30;86.60
40816;DHT22;26535;48.788;9.214;2023-03-23T21:26:21;15.30;86.50
40816;DHT22;26535;48.788;9.214;2023-03-23T21:28:47;15.30;86.70
40816;DHT22;26535;48.788;9.214;2023-03-23T21:31:15;15.20;86.60
40816;DHT22;26535;48.788;9.214;2023-03-23T21:33:42;15.30;86.80
40816;DHT22;26535;48.788;9.214;2023-03-23T21:36:09;15.30;86.80
40816;DHT22;26535;48.788;9.214;2023-03-23T21:38:35;15.30;86.70
40816;DHT22;26535;48.788;9.214;2023-03-23T21:41:09;15.20;86.80
40816;DHT22;26535;48.788;9.214;2023-03-23T21:43:35;15.20;86.90
40816;DHT22;26535;48.788;9.214;2023-03-23T21:46:04;15.20;87.10
40816;DHT22;26535;48.788;9.214;2023-03-23T21:48:30;15.30;87.10
40816;DHT22;26535;48.788;9.214;2023-03-23T21:51:04;15.30;87.10
40816;DHT22;26535;48.788;9.214;2023-03-23T21:53:30;15.30;87.30
40816;DHT22;26535;48.788;9.214;2023-03-23T21:55:58;15.20;87.30
40816;DHT22;26535;48.788;9.214;2023-03-23T21:58:24;15.10;87.60
40816;DHT22;26535;48.788;9.214;2023-03-23T22:00:54;15.00;88.00
40816;DHT22;26535;48.788;9.214;2023-03-23T22:03:21;15.00;88.40
40816;DHT22;26535;48.788;9.214;2023-03-23T22:05:49;14.90;88.60
40816;DHT22;26535;48.788;9.214;2023-03-23T22:08:28;14.80;88.30
40816;DHT22;26535;48.788;9.214;2023-03-23T22:11:02;14.80;89.00
40816;DHT22;26535;48.788;9.214;2023-03-23T22:13:29;14.70;89.10
40816;DHT22;26535;48.788;9.214;2023-03-23T22:15:57;14.60;89.50
40816;DHT22;26535;48.788;9.214;2023-03-23T22:18:23;14.60;90.00